Terminal Aerodrome Forecast
Issued by NWS Twin Cities, MN

Current Version | Previous Version | Text Only | Print | Product List | Glossary On
Versions: 1 2 3 4 5 6 7 8 9 10 11 12 13 14 15 16 17 18 19 20 21 22 23 24 25 26 27
000
FTUS43 KMPX 292343
TAFMSP
TAF
KMSP 292343Z 3000/3106 36013G20KT 5SM -RA BR OVC015
     FM300200 36015G22KT P6SM VCSH OVC015
     FM300800 35012G20KT P6SM SCT020 BKN100
     FM301400 01013G21KT P6SM FEW050 SCT250=

USA.gov is the U.S. government's official web portal to all federal, state and local government web resources and services.